sensor_id;sensor_type;location;lat;lon;timestamp;P1;durP1;ratioP1;P2;durP2;ratioP2
42602;SDS011;28233;55.748;48.752;2022-07-15T00:01:40;4.55;;;2.50;;
42602;SDS011;28233;55.748;48.752;2022-07-15T00:03:43;8.48;;;3.63;;
42602;SDS011;28233;55.748;48.752;2022-07-15T00:05:45;4.35;;;3.10;;
42602;SDS011;28233;55.748;48.752;2022-07-15T00:07:48;4.35;;;2.53;;
42602;SDS011;28233;55.748;48.752;2022-07-15T00:09:51;4.68;;;2.83;;
42602;SDS011;28233;55.748;48.752;2022-07-15T00:12:12;3.53;;;2.00;;
42602;SDS011;28233;55.748;48.752;2022-07-15T00:14:15;4.55;;;1.90;;
42602;SDS011;28233;55.748;48.752;2022-07-15T00:16:17;2.83;;;1.60;;
42602;SDS011;28233;55.748;48.752;2022-07-15T00:18:20;3.40;;;1.75;;
42602;SDS011;28233;55.748;48.752;2022-07-15T00:20:24;4.93;;;2.20;;
42602;SDS011;28233;55.748;48.752;2022-07-15T00:22:27;1.52;;;1.30;;
42602;SDS011;28233;55.748;48.752;2022-07-15T00:24:29;1.42;;;1.17;;
42602;SDS011;28233;55.748;48.752;2022-07-15T00:26:32;2.63;;;1.50;;
42602;SDS011;28233;55.748;48.752;2022-07-15T00:28:37;3.15;;;1.23;;
42602;SDS011;28233;55.748;48.752;2022-07-15T00:30:41;2.42;;;1.40;;
42602;SDS011;28233;55.748;48.752;2022-07-15T00:32:44;3.17;;;1.50;;
42602;SDS011;28233;55.748;48.752;2022-07-15T00:34:47;2.55;;;1.42;;
42602;SDS011;28233;55.748;48.752;2022-07-15T00:36:49;2.65;;;1.65;;
42602;SDS011;28233;55.748;48.752;2022-07-15T00:38:52;5.03;;;0.98;;
42602;SDS011;28233;55.748;48.752;2022-07-15T00:40:55;2.67;;;1.63;;
42602;SDS011;28233;55.748;48.752;2022-07-15T00:42:57;5.13;;;1.38;;
42602;SDS011;28233;55.748;48.752;2022-07-15T00:45:00;2.45;;;1.20;;
42602;SDS011;28233;55.748;48.752;2022-07-15T00:47:04;1.55;;;1.30;;
42602;SDS011;28233;55.748;48.752;2022-07-15T00:49:09;1.98;;;1.52;;
42602;SDS011;28233;55.748;48.752;2022-07-15T00:51:12;1.77;;;1.17;;
42602;SDS011;28233;55.748;48.752;2022-07-15T00:53:19;1.92;;;1.52;;
42602;SDS011;28233;55.748;48.752;2022-07-15T00:55:23;3.92;;;1.33;;
42602;SDS011;28233;55.748;48.752;2022-07-15T00:57:26;2.97;;;1.45;;
42602;SDS011;28233;55.748;48.752;2022-07-15T00:59:31;4.45;;;1.60;;
42602;SDS011;28233;55.748;48.752;2022-07-15T01:01:36;1.60;;;1.30;;
42602;SDS011;28233;55.748;48.752;2022-07-15T01:03:39;1.88;;;1.10;;
42602;SDS011;28233;55.748;48.752;2022-07-15T01:05:44;2.90;;;1.02;;
42602;SDS011;28233;55.748;48.752;2022-07-15T01:07:51;1.35;;;0.90;;
42602;SDS011;28233;55.748;48.752;2022-07-15T01:09:54;6.65;;;1.40;;
42602;SDS011;28233;55.748;48.752;2022-07-15T01:11:57;1.60;;;1.00;;
42602;SDS011;28233;55.748;48.752;2022-07-15T01:14:01;1.60;;;1.08;;
42602;SDS011;28233;55.748;48.752;2022-07-15T01:16:04;2.25;;;1.08;;
42602;SDS011;28233;55.748;48.752;2022-07-15T01:18:07;1.35;;;1.10;;
42602;SDS011;28233;55.748;48.752;2022-07-15T01:20:10;3.05;;;1.35;;
42602;SDS011;28233;55.748;48.752;2022-07-15T01:22:15;3.22;;;1.40;;
42602;SDS011;28233;55.748;48.752;2022-07-15T01:24:18;3.45;;;1.75;;
42602;SDS011;28233;55.748;48.752;2022-07-15T01:26:21;1.73;;;1.23;;
42602;SDS011;28233;55.748;48.752;2022-07-15T01:28:23;5.05;;;1.48;;
42602;SDS011;28233;55.748;48.752;2022-07-15T01:30:26;1.70;;;1.38;;
42602;SDS011;28233;55.748;48.752;2022-07-15T01:32:29;1.65;;;1.10;;
42602;SDS011;28233;55.748;48.752;2022-07-15T01:34:32;2.28;;;1.65;;
42602;SDS011;28233;55.748;48.752;2022-07-15T01:36:34;3.40;;;1.75;;
42602;SDS011;28233;55.748;48.752;2022-07-15T01:38:37;4.15;;;1.45;;
42602;SDS011;28233;55.748;48.752;2022-07-15T01:40:50;2.30;;;1.30;;
42602;SDS011;28233;55.748;48.752;2022-07-15T01:42:52;3.03;;;1.98;;
42602;SDS011;28233;55.748;48.752;2022-07-15T01:44:55;2.28;;;1.40;;
42602;SDS011;28233;55.748;48.752;2022-07-15T01:46:57;2.67;;;1.80;;
42602;SDS011;28233;55.748;48.752;2022-07-15T01:49:00;2.75;;;1.80;;
42602;SDS011;28233;55.748;48.752;2022-07-15T01:51:21;4.07;;;1.83;;
42602;SDS011;28233;55.748;48.752;2022-07-15T01:53:24;2.03;;;1.50;;
42602;SDS011;28233;55.748;48.752;2022-07-15T01:55:28;1.70;;;1.50;;
42602;SDS011;28233;55.748;48.752;2022-07-15T01:57:30;4.55;;;1.90;;
42602;SDS011;28233;55.748;48.752;2022-07-15T01:59:33;3.25;;;1.88;;
42602;SDS011;28233;55.748;48.752;2022-07-15T02:01:36;4.47;;;2.33;;
42602;SDS011;28233;55.748;48.752;2022-07-15T02:03:39;5.05;;;2.55;;
42602;SDS011;28233;55.748;48.752;2022-07-15T02:05:42;3.28;;;2.20;;
42602;SDS011;28233;55.748;48.752;2022-07-15T02:07:44;8.38;;;2.50;;
42602;SDS011;28233;55.748;48.752;2022-07-15T02:09:47;3.72;;;2.40;;
42602;SDS011;28233;55.748;48.752;2022-07-15T02:11:49;3.80;;;3.13;;
42602;SDS011;28233;55.748;48.752;2022-07-15T02:13:52;3.63;;;2.22;;
42602;SDS011;28233;55.748;48.752;2022-07-15T02:16:00;7.32;;;2.88;;
42602;SDS011;28233;55.748;48.752;2022-07-15T02:18:03;5.80;;;3.10;;
42602;SDS011;28233;55.748;48.752;2022-07-15T02:20:06;3.00;;;2.42;;
42602;SDS011;28233;55.748;48.752;2022-07-15T02:22:09;4.80;;;2.58;;
42602;SDS011;28233;55.748;48.752;2022-07-15T02:24:12;3.78;;;3.05;;
42602;SDS011;28233;55.748;48.752;2022-07-15T02:26:15;3.58;;;2.85;;
42602;SDS011;28233;55.748;48.752;2022-07-15T02:28:18;3.78;;;2.85;;
42602;SDS011;28233;55.748;48.752;2022-07-15T02:30:22;4.85;;;2.35;;
42602;SDS011;28233;55.748;48.752;2022-07-15T02:32:26;4.80;;;3.47;;
42602;SDS011;28233;55.748;48.752;2022-07-15T02:34:29;3.30;;;2.78;;
42602;SDS011;28233;55.748;48.752;2022-07-15T02:36:32;5.68;;;2.90;;
42602;SDS011;28233;55.748;48.752;2022-07-15T02:38:34;4.70;;;3.10;;
42602;SDS011;28233;55.748;48.752;2022-07-15T02:40:37;3.05;;;2.53;;
42602;SDS011;28233;55.748;48.752;2022-07-15T02:42:49;4.10;;;2.70;;
42602;SDS011;28233;55.748;48.752;2022-07-15T02:44:53;4.03;;;2.60;;
42602;SDS011;28233;55.748;48.752;2022-07-15T02:46:56;2.88;;;2.58;;
42602;SDS011;28233;55.748;48.752;2022-07-15T02:48:58;3.50;;;2.97;;
42602;SDS011;28233;55.748;48.752;2022-07-15T02:51:01;3.83;;;2.42;;
42602;SDS011;28233;55.748;48.752;2022-07-15T02:53:04;5.57;;;2.72;;
42602;SDS011;28233;55.748;48.752;2022-07-15T02:55:07;2.83;;;2.38;;
42602;SDS011;28233;55.748;48.752;2022-07-15T02:57:11;4.30;;;2.55;;
42602;SDS011;28233;55.748;48.752;2022-07-15T02:59:13;5.25;;;2.78;;
42602;SDS011;28233;55.748;48.752;2022-07-15T03:01:16;4.50;;;2.55;;
42602;SDS011;28233;55.748;48.752;2022-07-15T03:03:20;5.53;;;2.65;;
42602;SDS011;28233;55.748;48.752;2022-07-15T03:05:23;3.17;;;2.55;;
42602;SDS011;28233;55.748;48.752;2022-07-15T03:07:26;4.45;;;2.67;;
42602;SDS011;28233;55.748;48.752;2022-07-15T03:09:30;2.97;;;2.00;;
42602;SDS011;28233;55.748;48.752;2022-07-15T03:11:32;3.03;;;2.17;;
42602;SDS011;28233;55.748;48.752;2022-07-15T03:13:35;5.43;;;2.10;;
42602;SDS011;28233;55.748;48.752;2022-07-15T03:15:38;3.78;;;2.15;;
42602;SDS011;28233;55.748;48.752;2022-07-15T03:17:40;3.80;;;2.15;;
42602;SDS011;28233;55.748;48.752;2022-07-15T03:19:43;3.92;;;2.30;;
42602;SDS011;28233;55.748;48.752;2022-07-15T03:21:46;4.93;;;2.42;;
42602;SDS011;28233;55.748;48.752;2022-07-15T03:23:50;2.92;;;2.15;;
42602;SDS011;28233;55.748;48.752;2022-07-15T03:25:52;3.53;;;2.15;;
42602;SDS011;28233;55.748;48.752;2022-07-15T03:27:55;3.90;;;2.15;;
42602;SDS011;28233;55.748;48.752;2022-07-15T03:29:57;5.25;;;1.98;;
42602;SDS011;28233;55.748;48.752;2022-07-15T03:32:01;5.78;;;2.38;;
42602;SDS011;28233;55.748;48.752;2022-07-15T03:34:04;3.22;;;2.05;;
42602;SDS011;28233;55.748;48.752;2022-07-15T03:36:07;3.40;;;1.95;;
42602;SDS011;28233;55.748;48.752;2022-07-15T03:38:09;2.92;;;1.92;;
42602;SDS011;28233;55.748;48.752;2022-07-15T03:40:12;2.47;;;2.20;;
42602;SDS011;28233;55.748;48.752;2022-07-15T03:42:15;6.95;;;1.90;;
42602;SDS011;28233;55.748;48.752;2022-07-15T03:44:17;5.03;;;2.25;;
42602;SDS011;28233;55.748;48.752;2022-07-15T03:46:20;4.22;;;1.90;;
42602;SDS011;28233;55.748;48.752;2022-07-15T03:48:23;2.28;;;1.77;;
42602;SDS011;28233;55.748;48.752;2022-07-15T03:50:25;2.30;;;2.03;;
42602;SDS011;28233;55.748;48.752;2022-07-15T03:52:28;3.55;;;2.50;;
42602;SDS011;28233;55.748;48.752;2022-07-15T03:54:31;4.05;;;2.53;;
42602;SDS011;28233;55.748;48.752;2022-07-15T03:56:33;2.80;;;2.50;;
42602;SDS011;28233;55.748;48.752;2022-07-15T03:58:36;3.72;;;2.05;;
42602;SDS011;28233;55.748;48.752;2022-07-15T04:00:39;4.50;;;2.13;;
42602;SDS011;28233;55.748;48.752;2022-07-15T04:02:42;3.05;;;2.10;;
42602;SDS011;28233;55.748;48.752;2022-07-15T04:04:49;5.90;;;2.25;;
42602;SDS011;28233;55.748;48.752;2022-07-15T04:06:51;7.15;;;2.40;;
42602;SDS011;28233;55.748;48.752;2022-07-15T04:08:54;3.30;;;1.58;;
42602;SDS011;28233;55.748;48.752;2022-07-15T04:10:57;4.32;;;1.80;;
42602;SDS011;28233;55.748;48.752;2022-07-15T04:12:59;4.13;;;2.22;;
42602;SDS011;28233;55.748;48.752;2022-07-15T04:15:02;5.65;;;2.47;;
42602;SDS011;28233;55.748;48.752;2022-07-15T04:17:05;5.82;;;2.20;;
42602;SDS011;28233;55.748;48.752;2022-07-15T04:19:08;5.80;;;1.85;;
42602;SDS011;28233;55.748;48.752;2022-07-15T04:21:11;2.10;;;1.77;;
42602;SDS011;28233;55.748;48.752;2022-07-15T04:23:14;2.45;;;1.90;;
42602;SDS011;28233;55.748;48.752;2022-07-15T04:25:18;2.88;;;2.22;;
42602;SDS011;28233;55.748;48.752;2022-07-15T04:27:22;2.50;;;1.95;;
42602;SDS011;28233;55.748;48.752;2022-07-15T04:29:26;5.28;;;2.35;;
42602;SDS011;28233;55.748;48.752;2022-07-15T04:31:29;2.72;;;1.83;;
42602;SDS011;28233;55.748;48.752;2022-07-15T04:33:32;6.57;;;2.00;;
42602;SDS011;28233;55.748;48.752;2022-07-15T04:35:34;2.60;;;2.10;;
42602;SDS011;28233;55.748;48.752;2022-07-15T04:37:37;3.65;;;2.20;;
42602;SDS011;28233;55.748;48.752;2022-07-15T04:39:40;1.92;;;1.52;;
42602;SDS011;28233;55.748;48.752;2022-07-15T04:41:43;3.90;;;2.00;;
42602;SDS011;28233;55.748;48.752;2022-07-15T04:43:45;4.00;;;1.90;;
42602;SDS011;28233;55.748;48.752;2022-07-15T04:45:48;3.20;;;2.00;;
42602;SDS011;28233;55.748;48.752;2022-07-15T04:47:51;4.35;;;2.05;;
42602;SDS011;28233;55.748;48.752;2022-07-15T04:49:54;4.93;;;1.75;;
42602;SDS011;28233;55.748;48.752;2022-07-15T04:54:18;4.15;;;1.55;;
42602;SDS011;28233;55.748;48.752;2022-07-15T04:56:21;3.03;;;1.65;;
42602;SDS011;28233;55.748;48.752;2022-07-15T04:58:24;2.65;;;1.70;;
42602;SDS011;28233;55.748;48.752;2022-07-15T05:00:26;3.15;;;1.75;;
42602;SDS011;28233;55.748;48.752;2022-07-15T05:02:29;4.97;;;2.03;;
42602;SDS011;28233;55.748;48.752;2022-07-15T05:04:32;5.05;;;2.60;;
42602;SDS011;28233;55.748;48.752;2022-07-15T05:06:34;1.92;;;1.60;;
42602;SDS011;28233;55.748;48.752;2022-07-15T05:08:38;4.13;;;1.77;;
42602;SDS011;28233;55.748;48.752;2022-07-15T05:10:40;2.95;;;1.63;;
42602;SDS011;28233;55.748;48.752;2022-07-15T05:12:43;2.38;;;1.73;;
42602;SDS011;28233;55.748;48.752;2022-07-15T05:14:46;7.72;;;1.85;;
42602;SDS011;28233;55.748;48.752;2022-07-15T05:16:49;4.07;;;2.03;;
42602;SDS011;28233;55.748;48.752;2022-07-15T05:18:52;2.45;;;1.52;;
42602;SDS011;28233;55.748;48.752;2022-07-15T05:20:54;2.22;;;1.83;;
42602;SDS011;28233;55.748;48.752;2022-07-15T05:22:57;1.85;;;1.40;;
42602;SDS011;28233;55.748;48.752;2022-07-15T05:24:59;4.85;;;1.58;;
42602;SDS011;28233;55.748;48.752;2022-07-15T05:27:02;3.33;;;2.00;;
42602;SDS011;28233;55.748;48.752;2022-07-15T05:29:05;2.25;;;1.30;;
42602;SDS011;28233;55.748;48.752;2022-07-15T05:31:08;4.88;;;2.05;;
42602;SDS011;28233;55.748;48.752;2022-07-15T05:33:10;3.90;;;1.73;;
42602;SDS011;28233;55.748;48.752;2022-07-15T05:35:13;4.22;;;1.98;;
42602;SDS011;28233;55.748;48.752;2022-07-15T05:37:19;5.82;;;2.40;;
42602;SDS011;28233;55.748;48.752;2022-07-15T05:39:22;3.60;;;2.45;;
42602;SDS011;28233;55.748;48.752;2022-07-15T05:41:24;2.58;;;1.50;;
42602;SDS011;28233;55.748;48.752;2022-07-15T05:43:27;5.22;;;1.65;;
42602;SDS011;28233;55.748;48.752;2022-07-15T05:45:29;6.20;;;1.83;;
42602;SDS011;28233;55.748;48.752;2022-07-15T05:47:32;3.90;;;2.08;;
42602;SDS011;28233;55.748;48.752;2022-07-15T05:49:35;2.08;;;1.85;;
42602;SDS011;28233;55.748;48.752;2022-07-15T05:51:43;3.70;;;1.90;;
42602;SDS011;28233;55.748;48.752;2022-07-15T05:53:46;3.13;;;1.55;;
42602;SDS011;28233;55.748;48.752;2022-07-15T05:55:50;4.38;;;1.90;;
42602;SDS011;28233;55.748;48.752;2022-07-15T05:57:54;3.92;;;1.75;;
42602;SDS011;28233;55.748;48.752;2022-07-15T05:59:57;3.50;;;2.05;;
42602;SDS011;28233;55.748;48.752;2022-07-15T06:02:00;5.20;;;1.95;;
42602;SDS011;28233;55.748;48.752;2022-07-15T06:04:02;3.50;;;1.88;;
42602;SDS011;28233;55.748;48.752;2022-07-15T06:06:05;5.60;;;2.00;;
42602;SDS011;28233;55.748;48.752;2022-07-15T06:08:08;4.30;;;1.98;;
42602;SDS011;28233;55.748;48.752;2022-07-15T06:10:12;4.05;;;2.00;;
42602;SDS011;28233;55.748;48.752;2022-07-15T06:12:15;3.05;;;1.55;;
42602;SDS011;28233;55.748;48.752;2022-07-15T06:14:17;2.13;;;1.45;;
42602;SDS011;28233;55.748;48.752;2022-07-15T06:16:20;5.38;;;1.90;;
42602;SDS011;28233;55.748;48.752;2022-07-15T06:18:23;3.30;;;1.48;;
42602;SDS011;28233;55.748;48.752;2022-07-15T06:20:26;5.45;;;1.73;;
42602;SDS011;28233;55.748;48.752;2022-07-15T06:22:28;2.97;;;1.70;;
42602;SDS011;28233;55.748;48.752;2022-07-15T06:24:31;4.75;;;1.60;;
42602;SDS011;28233;55.748;48.752;2022-07-15T06:26:33;1.95;;;1.58;;
42602;SDS011;28233;55.748;48.752;2022-07-15T06:28:36;1.50;;;1.38;;
42602;SDS011;28233;55.748;48.752;2022-07-15T06:30:39;2.40;;;1.60;;
42602;SDS011;28233;55.748;48.752;2022-07-15T06:32:41;4.03;;;1.63;;
42602;SDS011;28233;55.748;48.752;2022-07-15T06:34:44;28.73;;;4.15;;
42602;SDS011;28233;55.748;48.752;2022-07-15T06:36:47;2.95;;;1.63;;
42602;SDS011;28233;55.748;48.752;2022-07-15T06:38:49;4.78;;;1.50;;
42602;SDS011;28233;55.748;48.752;2022-07-15T06:40:53;6.60;;;1.95;;
42602;SDS011;28233;55.748;48.752;2022-07-15T06:42:55;3.90;;;1.80;;
42602;SDS011;28233;55.748;48.752;2022-07-15T06:44:58;2.72;;;1.38;;
42602;SDS011;28233;55.748;48.752;2022-07-15T06:47:00;2.40;;;1.58;;
42602;SDS011;28233;55.748;48.752;2022-07-15T06:49:05;2.20;;;1.60;;
42602;SDS011;28233;55.748;48.752;2022-07-15T06:51:07;3.28;;;1.80;;
42602;SDS011;28233;55.748;48.752;2022-07-15T06:53:10;5.25;;;1.45;;
42602;SDS011;28233;55.748;48.752;2022-07-15T06:55:14;1.70;;;1.45;;
42602;SDS011;28233;55.748;48.752;2022-07-15T06:57:16;2.67;;;1.92;;
42602;SDS011;28233;55.748;48.752;2022-07-15T06:59:21;1.70;;;1.60;;
42602;SDS011;28233;55.748;48.752;2022-07-15T07:01:24;2.47;;;1.30;;
42602;SDS011;28233;55.748;48.752;2022-07-15T07:03:26;4.05;;;1.30;;
42602;SDS011;28233;55.748;48.752;2022-07-15T07:05:51;3.03;;;1.40;;
42602;SDS011;28233;55.748;48.752;2022-07-15T07:07:53;7.93;;;1.50;;
42602;SDS011;28233;55.748;48.752;2022-07-15T07:09:57;4.68;;;1.58;;
42602;SDS011;28233;55.748;48.752;2022-07-15T07:11:59;2.67;;;1.67;;
42602;SDS011;28233;55.748;48.752;2022-07-15T07:14:02;1.75;;;1.45;;
42602;SDS011;28233;55.748;48.752;2022-07-15T07:16:05;7.25;;;1.58;;
42602;SDS011;28233;55.748;48.752;2022-07-15T07:18:08;5.97;;;1.98;;
42602;SDS011;28233;55.748;48.752;2022-07-15T07:20:11;2.58;;;1.30;;
42602;SDS011;28233;55.748;48.752;2022-07-15T07:22:13;3.72;;;1.40;;
42602;SDS011;28233;55.748;48.752;2022-07-15T07:24:16;3.85;;;1.23;;
42602;SDS011;28233;55.748;48.752;2022-07-15T07:26:19;4.30;;;1.42;;
42602;SDS011;28233;55.748;48.752;2022-07-15T07:28:22;4.68;;;1.85;;
42602;SDS011;28233;55.748;48.752;2022-07-15T07:30:25;5.18;;;1.23;;
42602;SDS011;28233;55.748;48.752;2022-07-15T07:32:27;5.10;;;1.85;;
42602;SDS011;28233;55.748;48.752;2022-07-15T07:34:30;29.15;;;1.98;;
42602;SDS011;28233;55.748;48.752;2022-07-15T07:36:32;3.22;;;1.00;;
42602;SDS011;28233;55.748;48.752;2022-07-15T07:38:35;4.15;;;1.10;;
42602;SDS011;28233;55.748;48.752;2022-07-15T07:40:38;1.80;;;1.30;;
42602;SDS011;28233;55.748;48.752;2022-07-15T07:42:41;2.80;;;0.98;;
42602;SDS011;28233;55.748;48.752;2022-07-15T07:44:43;1.38;;;0.85;;
42602;SDS011;28233;55.748;48.752;2022-07-15T07:46:46;2.17;;;1.33;;
42602;SDS011;28233;55.748;48.752;2022-07-15T07:48:49;4.70;;;1.38;;
42602;SDS011;28233;55.748;48.752;2022-07-15T07:51:12;1.98;;;1.15;;
42602;SDS011;28233;55.748;48.752;2022-07-15T07:53:15;4.07;;;1.17;;
42602;SDS011;28233;55.748;48.752;2022-07-15T07:55:17;2.90;;;0.80;;
42602;SDS011;28233;55.748;48.752;2022-07-15T07:57:20;1.48;;;1.10;;
42602;SDS011;28233;55.748;48.752;2022-07-15T07:59:23;2.47;;;1.30;;
42602;SDS011;28233;55.748;48.752;2022-07-15T08:01:25;1.63;;;1.15;;
42602;SDS011;28233;55.748;48.752;2022-07-15T08:03:28;4.25;;;1.10;;
42602;SDS011;28233;55.748;48.752;2022-07-15T08:05:31;3.78;;;1.40;;
42602;SDS011;28233;55.748;48.752;2022-07-15T08:07:34;1.88;;;1.40;;
42602;SDS011;28233;55.748;48.752;2022-07-15T08:09:38;3.70;;;1.58;;
42602;SDS011;28233;55.748;48.752;2022-07-15T08:11:40;2.90;;;1.52;;
42602;SDS011;28233;55.748;48.752;2022-07-15T08:13:43;4.28;;;1.52;;
42602;SDS011;28233;55.748;48.752;2022-07-15T08:15:45;4.72;;;1.65;;
42602;SDS011;28233;55.748;48.752;2022-07-15T08:17:48;1.52;;;1.17;;
42602;SDS011;28233;55.748;48.752;2022-07-15T08:19:51;7.70;;;1.20;;
42602;SDS011;28233;55.748;48.752;2022-07-15T08:21:54;2.28;;;1.42;;
42602;SDS011;28233;55.748;48.752;2022-07-15T08:23:57;3.05;;;1.00;;
42602;SDS011;28233;55.748;48.752;2022-07-15T08:25:59;5.88;;;1.63;;
42602;SDS011;28233;55.748;48.752;2022-07-15T08:28:03;1.75;;;1.33;;
42602;SDS011;28233;55.748;48.752;2022-07-15T08:30:06;1.40;;;1.00;;
42602;SDS011;28233;55.748;48.752;2022-07-15T08:32:09;1.42;;;1.10;;
42602;SDS011;28233;55.748;48.752;2022-07-15T08:34:12;1.23;;;1.13;;
42602;SDS011;28233;55.748;48.752;2022-07-15T08:36:14;3.53;;;0.90;;
42602;SDS011;28233;55.748;48.752;2022-07-15T08:38:17;1.67;;;1.00;;
42602;SDS011;28233;55.748;48.752;2022-07-15T08:40:20;6.57;;;1.35;;
42602;SDS011;28233;55.748;48.752;2022-07-15T08:42:23;11.52;;;1.48;;
42602;SDS011;28233;55.748;48.752;2022-07-15T08:44:25;2.80;;;1.10;;
42602;SDS011;28233;55.748;48.752;2022-07-15T08:46:29;5.00;;;1.20;;
42602;SDS011;28233;55.748;48.752;2022-07-15T08:48:35;4.32;;;1.40;;
42602;SDS011;28233;55.748;48.752;2022-07-15T08:50:39;3.45;;;1.00;;
42602;SDS011;28233;55.748;48.752;2022-07-15T08:52:45;1.38;;;1.10;;
42602;SDS011;28233;55.748;48.752;2022-07-15T08:54:48;3.60;;;1.10;;
42602;SDS011;28233;55.748;48.752;2022-07-15T08:56:51;1.23;;;0.95;;
42602;SDS011;28233;55.748;48.752;2022-07-15T08:58:54;1.38;;;0.90;;
42602;SDS011;28233;55.748;48.752;2022-07-15T09:01:01;1.92;;;1.65;;
42602;SDS011;28233;55.748;48.752;2022-07-15T09:03:04;2.53;;;1.08;;
42602;SDS011;28233;55.748;48.752;2022-07-15T09:09:58;2.28;;;1.10;;
42602;SDS011;28233;55.748;48.752;2022-07-15T09:14:17;3.58;;;0.95;;
42602;SDS011;28233;55.748;48.752;2022-07-15T09:16:21;1.20;;;1.10;;
42602;SDS011;28233;55.748;48.752;2022-07-15T09:18:27;3.20;;;1.35;;
42602;SDS011;28233;55.748;48.752;2022-07-15T09:20:32;2.95;;;1.00;;
42602;SDS011;28233;55.748;48.752;2022-07-15T09:25:19;2.45;;;1.38;;
42602;SDS011;28233;55.748;48.752;2022-07-15T09:27:27;1.95;;;1.10;;
42602;SDS011;28233;55.748;48.752;2022-07-15T09:29:35;2.67;;;1.00;;
42602;SDS011;28233;55.748;48.752;2022-07-15T09:32:01;1.52;;;1.02;;
42602;SDS011;28233;55.748;48.752;2022-07-15T09:36:27;4.38;;;1.15;;
42602;SDS011;28233;55.748;48.752;2022-07-15T09:38:50;2.05;;;1.08;;
42602;SDS011;28233;55.748;48.752;2022-07-15T09:40:55;2.00;;;1.00;;
42602;SDS011;28233;55.748;48.752;2022-07-15T09:43:01;3.53;;;1.27;;
42602;SDS011;28233;55.748;48.752;2022-07-15T09:45:18;3.50;;;1.30;;
42602;SDS011;28233;55.748;48.752;2022-07-15T09:47:21;2.15;;;1.27;;
42602;SDS011;28233;55.748;48.752;2022-07-15T09:51:29;5.43;;;1.60;;
42602;SDS011;28233;55.748;48.752;2022-07-15T09:53:40;6.07;;;1.60;;
42602;SDS011;28233;55.748;48.752;2022-07-15T09:55:43;3.20;;;1.40;;
42602;SDS011;28233;55.748;48.752;2022-07-15T09:57:46;3.75;;;1.42;;
42602;SDS011;28233;55.748;48.752;2022-07-15T09:59:49;5.13;;;1.52;;
42602;SDS011;28233;55.748;48.752;2022-07-15T10:01:53;7.47;;;2.00;;
42602;SDS011;28233;55.748;48.752;2022-07-15T10:03:56;6.72;;;1.20;;
42602;SDS011;28233;55.748;48.752;2022-07-15T10:05:59;8.05;;;1.90;;
42602;SDS011;28233;55.748;48.752;2022-07-15T10:08:03;2.88;;;1.40;;
42602;SDS011;28233;55.748;48.752;2022-07-15T10:10:08;4.32;;;1.25;;
42602;SDS011;28233;55.748;48.752;2022-07-15T10:12:18;8.10;;;1.80;;
42602;SDS011;28233;55.748;48.752;2022-07-15T10:19:10;3.58;;;2.00;;
42602;SDS011;28233;55.748;48.752;2022-07-15T10:28:20;2.88;;;2.13;;
42602;SDS011;28233;55.748;48.752;2022-07-15T10:30:31;3.22;;;2.33;;
42602;SDS011;28233;55.748;48.752;2022-07-15T10:40:22;9.23;;;3.88;;
42602;SDS011;28233;55.748;48.752;2022-07-15T10:43:01;5.55;;;3.05;;
42602;SDS011;28233;55.748;48.752;2022-07-15T10:45:06;10.52;;;4.05;;
42602;SDS011;28233;55.748;48.752;2022-07-15T10:53:45;5.03;;;3.50;;
42602;SDS011;28233;55.748;48.752;2022-07-15T10:55:48;6.78;;;4.22;;
42602;SDS011;28233;55.748;48.752;2022-07-15T10:57:53;8.30;;;4.20;;
42602;SDS011;28233;55.748;48.752;2022-07-15T10:59:56;8.77;;;5.20;;
42602;SDS011;28233;55.748;48.752;2022-07-15T11:06:28;5.55;;;3.70;;
42602;SDS011;28233;55.748;48.752;2022-07-15T11:10:36;4.63;;;4.20;;
42602;SDS011;28233;55.748;48.752;2022-07-15T11:17:15;6.93;;;4.22;;
42602;SDS011;28233;55.748;48.752;2022-07-15T11:19:20;9.93;;;3.78;;
42602;SDS011;28233;55.748;48.752;2022-07-15T11:21:23;13.73;;;3.58;;
42602;SDS011;28233;55.748;48.752;2022-07-15T11:23:29;5.47;;;3.38;;
42602;SDS011;28233;55.748;48.752;2022-07-15T11:25:37;4.63;;;3.60;;
42602;SDS011;28233;55.748;48.752;2022-07-15T11:27:53;7.10;;;3.03;;
42602;SDS011;28233;55.748;48.752;2022-07-15T11:30:04;5.57;;;3.10;;
42602;SDS011;28233;55.748;48.752;2022-07-15T11:32:07;3.38;;;3.05;;
42602;SDS011;28233;55.748;48.752;2022-07-15T11:34:10;3.00;;;2.60;;
42602;SDS011;28233;55.748;48.752;2022-07-15T11:36:16;4.97;;;3.00;;
42602;SDS011;28233;55.748;48.752;2022-07-15T11:38:22;5.93;;;3.15;;
42602;SDS011;28233;55.748;48.752;2022-07-15T11:40:26;5.63;;;3.08;;
42602;SDS011;28233;55.748;48.752;2022-07-15T11:42:47;6.38;;;3.28;;
42602;SDS011;28233;55.748;48.752;2022-07-15T11:45:09;5.18;;;3.40;;
42602;SDS011;28233;55.748;48.752;2022-07-15T11:47:13;8.93;;;3.78;;
42602;SDS011;28233;55.748;48.752;2022-07-15T11:51:36;4.22;;;3.70;;
42602;SDS011;28233;55.748;48.752;2022-07-15T11:53:40;5.22;;;3.63;;
42602;SDS011;28233;55.748;48.752;2022-07-15T11:58:00;3.97;;;3.58;;
42602;SDS011;28233;55.748;48.752;2022-07-15T12:00:03;5.50;;;3.50;;
42602;SDS011;28233;55.748;48.752;2022-07-15T12:02:07;3.75;;;3.40;;
42602;SDS011;28233;55.748;48.752;2022-07-15T12:04:14;5.80;;;3.75;;
42602;SDS011;28233;55.748;48.752;2022-07-15T12:08:35;5.78;;;3.92;;
42602;SDS011;28233;55.748;48.752;2022-07-15T12:10:42;6.13;;;2.97;;
42602;SDS011;28233;55.748;48.752;2022-07-15T12:12:55;3.38;;;3.08;;
42602;SDS011;28233;55.748;48.752;2022-07-15T12:14:59;6.55;;;4.25;;
42602;SDS011;28233;55.748;48.752;2022-07-15T12:17:04;4.78;;;3.42;;
42602;SDS011;28233;55.748;48.752;2022-07-15T12:19:14;5.45;;;3.63;;
42602;SDS011;28233;55.748;48.752;2022-07-15T12:21:18;3.25;;;2.95;;
42602;SDS011;28233;55.748;48.752;2022-07-15T12:23:20;4.63;;;2.47;;
42602;SDS011;28233;55.748;48.752;2022-07-15T12:25:28;6.50;;;2.75;;
42602;SDS011;28233;55.748;48.752;2022-07-15T12:27:34;5.70;;;2.67;;
42602;SDS011;28233;55.748;48.752;2022-07-15T12:29:37;5.20;;;2.60;;
42602;SDS011;28233;55.748;48.752;2022-07-15T12:32:02;7.00;;;3.05;;
42602;SDS011;28233;55.748;48.752;2022-07-15T12:34:09;3.30;;;2.45;;
42602;SDS011;28233;55.748;48.752;2022-07-15T12:36:16;3.28;;;2.45;;
42602;SDS011;28233;55.748;48.752;2022-07-15T12:38:30;4.22;;;2.22;;
42602;SDS011;28233;55.748;48.752;2022-07-15T12:40:33;3.30;;;2.60;;
42602;SDS011;28233;55.748;48.752;2022-07-15T12:42:40;5.45;;;2.75;;
42602;SDS011;28233;55.748;48.752;2022-07-15T12:44:47;4.97;;;3.15;;
42602;SDS011;28233;55.748;48.752;2022-07-15T12:47:25;5.97;;;3.15;;
42602;SDS011;28233;55.748;48.752;2022-07-15T12:49:37;9.20;;;2.55;;
42602;SDS011;28233;55.748;48.752;2022-07-15T12:51:46;7.35;;;3.58;;
42602;SDS011;28233;55.748;48.752;2022-07-15T12:53:49;5.82;;;3.22;;
42602;SDS011;28233;55.748;48.752;2022-07-15T12:55:53;3.85;;;2.63;;
42602;SDS011;28233;55.748;48.752;2022-07-15T12:58:07;3.55;;;2.85;;
42602;SDS011;28233;55.748;48.752;2022-07-15T13:02:16;2.75;;;2.17;;
42602;SDS011;28233;55.748;48.752;2022-07-15T13:04:19;5.53;;;3.00;;
42602;SDS011;28233;55.748;48.752;2022-07-15T13:06:21;4.03;;;3.35;;
42602;SDS011;28233;55.748;48.752;2022-07-15T13:08:25;10.45;;;3.40;;
42602;SDS011;28233;55.748;48.752;2022-07-15T13:10:30;5.95;;;2.85;;
42602;SDS011;28233;55.748;48.752;2022-07-15T13:12:33;5.03;;;3.45;;
42602;SDS011;28233;55.748;48.752;2022-07-15T13:14:36;4.00;;;2.97;;
42602;SDS011;28233;55.748;48.752;2022-07-15T13:16:39;2.63;;;2.40;;
42602;SDS011;28233;55.748;48.752;2022-07-15T13:18:42;7.15;;;2.58;;
42602;SDS011;28233;55.748;48.752;2022-07-15T13:20:45;4.97;;;2.40;;